sensor_id;sensor_type;location;lat;lon;timestamp;pressure;altitude;pressure_sealevel;temperature;humidity
77159;BME280;66129;45.890;13.714;2023-06-14T00:00:09;100507.25;;;16.82;100.00
77159;BME280;66129;45.890;13.714;2023-06-14T00:02:38;100496.09;;;16.77;100.00
77159;BME280;66129;45.890;13.714;2023-06-14T00:05:04;100499.56;;;16.76;100.00
77159;BME280;66129;45.890;13.714;2023-06-14T00:07:35;100502.88;;;16.87;100.00
77159;BME280;66129;45.890;13.714;2023-06-14T00:10:02;100492.53;;;16.87;100.00
77159;BME280;66129;45.890;13.714;2023-06-14T00:12:28;100484.13;;;16.68;100.00
77159;BME280;66129;45.890;13.714;2023-06-14T00:14:53;100470.41;;;16.58;100.00
77159;BME280;66129;45.890;13.714;2023-06-14T00:17:19;100475.47;;;16.67;100.00
77159;BME280;66129;45.890;13.714;2023-06-14T00:19:46;100480.66;;;16.69;100.00
77159;BME280;66129;45.890;13.714;2023-06-14T00:22:11;100480.69;;;16.66;100.00
77159;BME280;66129;45.890;13.714;2023-06-14T00:24:37;100470.50;;;16.48;100.00
77159;BME280;66129;45.890;13.714;2023-06-14T00:27:03;100474.88;;;16.40;100.00
77159;BME280;66129;45.890;13.714;2023-06-14T00:29:28;100469.81;;;16.23;100.00
77159;BME280;66129;45.890;13.714;2023-06-14T00:31:53;100481.94;;;16.15;100.00
77159;BME280;66129;45.890;13.714;2023-06-14T00:34:19;100475.16;;;16.01;100.00
77159;BME280;66129;45.890;13.714;2023-06-14T00:36:44;100471.66;;;16.05;100.00
77159;BME280;66129;45.890;13.714;2023-06-14T00:39:10;100470.88;;;15.94;100.00
77159;BME280;66129;45.890;13.714;2023-06-14T00:41:35;100455.41;;;15.86;100.00
77159;BME280;66129;45.890;13.714;2023-06-14T00:44:01;100453.66;;;15.90;100.00
77159;BME280;66129;45.890;13.714;2023-06-14T00:46:26;100445.00;;;15.98;100.00
77159;BME280;66129;45.890;13.714;2023-06-14T00:48:52;100456.09;;;16.12;100.00
77159;BME280;66129;45.890;13.714;2023-06-14T00:51:17;100450.94;;;16.09;100.00
77159;BME280;66129;45.890;13.714;2023-06-14T00:53:44;100454.41;;;16.08;100.00
77159;BME280;66129;45.890;13.714;2023-06-14T00:56:13;100455.28;;;16.09;100.00
77159;BME280;66129;45.890;13.714;2023-06-14T00:58:41;100445.97;;;15.87;100.00
77159;BME280;66129;45.890;13.714;2023-06-14T01:01:06;100442.66;;;15.65;100.00
77159;BME280;66129;45.890;13.714;2023-06-14T01:03:32;100455.56;;;15.65;100.00
77159;BME280;66129;45.890;13.714;2023-06-14T01:09:09;100447.06;;;15.44;100.00
77159;BME280;66129;45.890;13.714;2023-06-14T01:11:47;100448.78;;;15.45;100.00
77159;BME280;66129;45.890;13.714;2023-06-14T01:14:16;100455.69;;;15.43;100.00
77159;BME280;66129;45.890;13.714;2023-06-14T01:16:43;100451.34;;;15.48;100.00
77159;BME280;66129;45.890;13.714;2023-06-14T01:19:11;100452.22;;;15.50;100.00
77159;BME280;66129;45.890;13.714;2023-06-14T01:21:39;100449.59;;;15.56;100.00
77159;BME280;66129;45.890;13.714;2023-06-14T01:24:08;100447.06;;;15.44;100.00
77159;BME280;66129;45.890;13.714;2023-06-14T01:26:35;100447.97;;;15.37;100.00
77159;BME280;66129;45.890;13.714;2023-06-14T01:29:03;100435.09;;;15.21;100.00
77159;BME280;66129;45.890;13.714;2023-06-14T01:31:29;100433.38;;;15.21;100.00
77159;BME280;66129;45.890;13.714;2023-06-14T01:34:05;100434.25;;;15.20;100.00
77159;BME280;66129;45.890;13.714;2023-06-14T01:36:30;100432.50;;;15.27;100.00
77159;BME280;66129;45.890;13.714;2023-06-14T01:38:59;100429.91;;;15.31;100.00
77159;BME280;66129;45.890;13.714;2023-06-14T01:41:25;100434.22;;;15.31;100.00
77159;BME280;66129;45.890;13.714;2023-06-14T01:43:52;100423.06;;;15.21;100.00
77159;BME280;66129;45.890;13.714;2023-06-14T01:46:19;100431.66;;;15.17;100.00
77159;BME280;66129;45.890;13.714;2023-06-14T01:48:44;100426.56;;;14.99;100.00
77159;BME280;66129;45.890;13.714;2023-06-14T01:51:10;100420.56;;;14.90;100.00
77159;BME280;66129;45.890;13.714;2023-06-14T01:53:35;100418.88;;;14.90;100.00
77159;BME280;66129;45.890;13.714;2023-06-14T01:56:01;100420.59;;;14.87;100.00
77159;BME280;66129;45.890;13.714;2023-06-14T01:58:26;100434.31;;;14.98;100.00
77159;BME280;66129;45.890;13.714;2023-06-14T02:00:52;100431.78;;;14.87;100.00
77159;BME280;66129;45.890;13.714;2023-06-14T02:03:20;100438.69;;;14.78;100.00
77159;BME280;66129;45.890;13.714;2023-06-14T02:05:46;100424.09;;;14.65;100.00
77159;BME280;66129;45.890;13.714;2023-06-14T02:08:12;100409.50;;;14.68;100.00
77159;BME280;66129;45.890;13.714;2023-06-14T02:10:37;100414.63;;;14.76;100.00
77159;BME280;66129;45.890;13.714;2023-06-14T02:13:03;100411.13;;;14.86;100.00
77159;BME280;66129;45.890;13.714;2023-06-14T02:15:28;100406.84;;;14.80;100.00
77159;BME280;66129;45.890;13.714;2023-06-14T02:18:02;100423.16;;;14.97;100.00
77159;BME280;66129;45.890;13.714;2023-06-14T02:20:28;100417.13;;;14.91;100.00
77159;BME280;66129;45.890;13.714;2023-06-14T02:22:54;100424.88;;;14.91;100.00
77159;BME280;66129;45.890;13.714;2023-06-14T02:25:20;100424.06;;;14.80;100.00
77159;BME280;66129;45.890;13.714;2023-06-14T02:27:45;100418.09;;;14.64;100.00
77159;BME280;66129;45.890;13.714;2023-06-14T02:30:11;100419.81;;;14.62;100.00
77159;BME280;66129;45.890;13.714;2023-06-14T02:32:37;100410.38;;;14.52;100.00
77159;BME280;66129;45.890;13.714;2023-06-14T02:35:03;100417.25;;;14.49;100.00
77159;BME280;66129;45.890;13.714;2023-06-14T02:37:29;100421.56;;;14.53;100.00
77159;BME280;66129;45.890;13.714;2023-06-14T02:39:55;100412.09;;;14.44;100.00
77159;BME280;66129;45.890;13.714;2023-06-14T02:42:21;100423.25;;;14.46;100.00
77159;BME280;66129;45.890;13.714;2023-06-14T02:44:46;100415.53;;;14.46;100.00
77159;BME280;66129;45.890;13.714;2023-06-14T02:47:19;100415.53;;;14.52;100.00
77159;BME280;66129;45.890;13.714;2023-06-14T02:49:45;100399.22;;;14.36;100.00
77159;BME280;66129;45.890;13.714;2023-06-14T02:52:13;100413.00;;;14.35;100.00
77159;BME280;66129;45.890;13.714;2023-06-14T02:54:39;100416.44;;;14.31;100.00
77159;BME280;66129;45.890;13.714;2023-06-14T02:57:05;100409.56;;;14.24;100.00
77159;BME280;66129;45.890;13.714;2023-06-14T02:59:32;100400.06;;;14.09;100.00
77159;BME280;66129;45.890;13.714;2023-06-14T03:01:57;100413.84;;;14.26;100.00
77159;BME280;66129;45.890;13.714;2023-06-14T03:04:24;100414.72;;;14.36;100.00
77159;BME280;66129;45.890;13.714;2023-06-14T03:06:51;100407.00;;;14.19;100.00
77159;BME280;66129;45.890;13.714;2023-06-14T03:09:17;100423.28;;;14.33;100.00
77159;BME280;66129;45.890;13.714;2023-06-14T03:11:42;100411.28;;;14.31;100.00
77159;BME280;66129;45.890;13.714;2023-06-14T03:14:08;100410.41;;;14.23;100.00
77159;BME280;66129;45.890;13.714;2023-06-14T03:16:34;100411.28;;;14.23;100.00
77159;BME280;66129;45.890;13.714;2023-06-14T03:18:59;100420.72;;;14.29;100.00
77159;BME280;66129;45.890;13.714;2023-06-14T03:21:25;100400.13;;;14.24;100.00
77159;BME280;66129;45.890;13.714;2023-06-14T03:23:51;100405.25;;;14.17;100.00
77159;BME280;66129;45.890;13.714;2023-06-14T03:26:18;100409.53;;;14.15;100.00
77159;BME280;66129;45.890;13.714;2023-06-14T03:28:47;100426.75;;;14.22;100.00
77159;BME280;66129;45.890;13.714;2023-06-14T03:31:13;100407.81;;;14.14;100.00
77159;BME280;66129;45.890;13.714;2023-06-14T03:33:40;100419.00;;;14.16;100.00
77159;BME280;66129;45.890;13.714;2023-06-14T03:36:06;100418.16;;;14.20;100.00
77159;BME280;66129;45.890;13.714;2023-06-14T03:38:34;100422.44;;;14.21;100.00
77159;BME280;66129;45.890;13.714;2023-06-14T03:41:00;100428.47;;;14.23;100.00
77159;BME280;66129;45.890;13.714;2023-06-14T03:43:26;100433.59;;;14.27;100.00
77159;BME280;66129;45.890;13.714;2023-06-14T03:45:52;100431.91;;;14.20;100.00
77159;BME280;66129;45.890;13.714;2023-06-14T03:48:17;100434.47;;;14.22;100.00
77159;BME280;66129;45.890;13.714;2023-06-14T03:50:43;100419.03;;;14.17;100.00
77159;BME280;66129;45.890;13.714;2023-06-14T03:53:09;100429.31;;;14.28;100.00
77159;BME280;66129;45.890;13.714;2023-06-14T03:55:35;100427.59;;;14.27;100.00
77159;BME280;66129;45.890;13.714;2023-06-14T03:58:00;100443.06;;;14.40;100.00
77159;BME280;66129;45.890;13.714;2023-06-14T04:00:26;100435.31;;;14.42;100.00
77159;BME280;66129;45.890;13.714;2023-06-14T04:02:52;100442.19;;;14.50;100.00
77159;BME280;66129;45.890;13.714;2023-06-14T04:05:18;100439.63;;;14.53;100.00
77159;BME280;66129;45.890;13.714;2023-06-14T04:07:45;100437.88;;;14.59;100.00
77159;BME280;66129;45.890;13.714;2023-06-14T04:10:11;100446.44;;;14.73;100.00
77159;BME280;66129;45.890;13.714;2023-06-14T04:12:38;100461.84;;;15.02;100.00
77159;BME280;66129;45.890;13.714;2023-06-14T04:15:04;100459.19;;;15.29;100.00
77159;BME280;66129;45.890;13.714;2023-06-14T04:17:31;100453.03;;;15.58;100.00
77159;BME280;66129;45.890;13.714;2023-06-14T04:19:58;100452.84;;;15.88;100.00
77159;BME280;66129;45.890;13.714;2023-06-14T04:22:25;100450.13;;;16.06;99.97
77159;BME280;66129;45.890;13.714;2023-06-14T04:24:54;100436.13;;;16.29;95.55
77159;BME280;66129;45.890;13.714;2023-06-14T04:27:22;100452.75;;;16.94;86.92
77159;BME280;66129;45.890;13.714;2023-06-14T04:29:51;100449.13;;;17.75;81.31
77159;BME280;66129;45.890;13.714;2023-06-14T04:32:18;100456.88;;;18.34;77.56
77159;BME280;66129;45.890;13.714;2023-06-14T04:34:44;100421.88;;;18.57;74.61
77159;BME280;66129;45.890;13.714;2023-06-14T04:37:09;100435.38;;;18.76;73.69
77159;BME280;66129;45.890;13.714;2023-06-14T04:39:34;100448.22;;;18.83;71.46
77159;BME280;66129;45.890;13.714;2023-06-14T04:42:00;100448.03;;;18.92;70.86
77159;BME280;66129;45.890;13.714;2023-06-14T04:44:25;100444.56;;;18.92;72.32
77159;BME280;66129;45.890;13.714;2023-06-14T04:46:58;100456.00;;;19.28;67.96
77159;BME280;66129;45.890;13.714;2023-06-14T04:49:24;100453.03;;;19.46;68.72
77159;BME280;66129;45.890;13.714;2023-06-14T04:51:52;100451.38;;;19.41;69.37
77159;BME280;66129;45.890;13.714;2023-06-14T04:54:23;100441.34;;;19.24;68.66
77159;BME280;66129;45.890;13.714;2023-06-14T04:56:51;100435.72;;;19.45;66.69
77159;BME280;66129;45.890;13.714;2023-06-14T04:59:17;100436.38;;;19.91;65.18
77159;BME280;66129;45.890;13.714;2023-06-14T05:01:43;100452.56;;;20.05;65.23
77159;BME280;66129;45.890;13.714;2023-06-14T05:04:15;100445.41;;;20.13;64.51
77159;BME280;66129;45.890;13.714;2023-06-14T05:06:42;100451.41;;;20.51;63.72
77159;BME280;66129;45.890;13.714;2023-06-14T05:09:12;100446.47;;;20.73;62.45
77159;BME280;66129;45.890;13.714;2023-06-14T05:11:37;100440.38;;;20.74;62.18
77159;BME280;66129;45.890;13.714;2023-06-14T05:14:03;100464.84;;;20.68;61.98
77159;BME280;66129;45.890;13.714;2023-06-14T05:16:28;100470.03;;;21.02;60.20
77159;BME280;66129;45.890;13.714;2023-06-14T05:18:54;100462.72;;;21.14;60.18
77159;BME280;66129;45.890;13.714;2023-06-14T05:21:20;100459.56;;;21.33;59.86
77159;BME280;66129;45.890;13.714;2023-06-14T05:23:45;100470.75;;;21.08;60.29
77159;BME280;66129;45.890;13.714;2023-06-14T05:26:11;100474.63;;;20.94;60.72
77159;BME280;66129;45.890;13.714;2023-06-14T05:28:36;100477.81;;;20.70;61.78
77159;BME280;66129;45.890;13.714;2023-06-14T05:31:02;100478.38;;;20.49;61.79
77159;BME280;66129;45.890;13.714;2023-06-14T05:33:28;100481.19;;;20.40;61.61
77159;BME280;66129;45.890;13.714;2023-06-14T05:35:54;100484.19;;;20.25;61.60
77159;BME280;66129;45.890;13.714;2023-06-14T05:38:19;100491.94;;;20.28;62.49
77159;BME280;66129;45.890;13.714;2023-06-14T05:40:44;100500.56;;;20.30;62.70
77159;BME280;66129;45.890;13.714;2023-06-14T05:43:10;100493.91;;;20.18;62.71
77159;BME280;66129;45.890;13.714;2023-06-14T05:45:35;100493.91;;;20.18;62.91
77159;BME280;66129;45.890;13.714;2023-06-14T05:48:01;100474.94;;;20.12;62.13
77159;BME280;66129;45.890;13.714;2023-06-14T05:50:26;100512.50;;;20.38;61.72
77159;BME280;66129;45.890;13.714;2023-06-14T05:52:53;100502.81;;;20.43;60.86
77159;BME280;66129;45.890;13.714;2023-06-14T05:55:18;100503.53;;;20.50;60.20
77159;BME280;66129;45.890;13.714;2023-06-14T05:57:44;100518.19;;;20.54;61.02
77159;BME280;66129;45.890;13.714;2023-06-14T06:00:09;100514.00;;;20.48;60.93
77159;BME280;66129;45.890;13.714;2023-06-14T06:02:42;100518.06;;;20.58;60.77
77159;BME280;66129;45.890;13.714;2023-06-14T06:05:13;100510.84;;;20.69;59.92
77159;BME280;66129;45.890;13.714;2023-06-14T06:07:39;100524.28;;;20.88;59.92
77159;BME280;66129;45.890;13.714;2023-06-14T06:10:09;100521.34;;;21.00;58.06
77159;BME280;66129;45.890;13.714;2023-06-14T06:12:35;100522.16;;;21.33;57.54
77159;BME280;66129;45.890;13.714;2023-06-14T06:15:00;100513.44;;;21.34;57.60
77159;BME280;66129;45.890;13.714;2023-06-14T06:17:26;100538.88;;;21.58;56.00
77159;BME280;66129;45.890;13.714;2023-06-14T06:19:52;100526.78;;;21.54;56.20
77159;BME280;66129;45.890;13.714;2023-06-14T06:22:17;100526.06;;;21.49;54.90
77159;BME280;66129;45.890;13.714;2023-06-14T06:24:43;100507.97;;;21.43;55.51
77159;BME280;66129;45.890;13.714;2023-06-14T06:27:08;100513.34;;;21.37;55.97
77159;BME280;66129;45.890;13.714;2023-06-14T06:29:35;100517.72;;;21.37;56.64
77159;BME280;66129;45.890;13.714;2023-06-14T06:32:01;100547.66;;;21.54;56.62
77159;BME280;66129;45.890;13.714;2023-06-14T06:34:27;100550.38;;;21.50;57.01
77159;BME280;66129;45.890;13.714;2023-06-14T06:36:52;100514.31;;;21.33;56.68
77159;BME280;66129;45.890;13.714;2023-06-14T06:39:18;100557.94;;;21.60;56.62
77159;BME280;66129;45.890;13.714;2023-06-14T06:41:43;100543.44;;;21.49;55.15
77159;BME280;66129;45.890;13.714;2023-06-14T06:44:09;100559.38;;;21.70;55.37
77159;BME280;66129;45.890;13.714;2023-06-14T06:46:36;100540.19;;;21.73;55.91
77159;BME280;66129;45.890;13.714;2023-06-14T06:49:05;100564.66;;;21.98;55.01
77159;BME280;66129;45.890;13.714;2023-06-14T06:51:31;100551.28;;;22.08;55.67
77159;BME280;66129;45.890;13.714;2023-06-14T06:53:56;100543.38;;;22.10;55.02
77159;BME280;66129;45.890;13.714;2023-06-14T06:56:22;100565.75;;;22.47;53.69
77159;BME280;66129;45.890;13.714;2023-06-14T06:58:52;100548.84;;;22.83;52.20
77159;BME280;66129;45.890;13.714;2023-06-14T07:01:17;100557.50;;;22.85;52.80
77159;BME280;66129;45.890;13.714;2023-06-14T07:03:45;100559.19;;;22.87;52.84
77159;BME280;66129;45.890;13.714;2023-06-14T07:06:10;100548.19;;;22.78;52.66
77159;BME280;66129;45.890;13.714;2023-06-14T07:08:36;100562.59;;;22.89;53.14
77159;BME280;66129;45.890;13.714;2023-06-14T07:11:04;100547.25;;;22.79;53.59
77159;BME280;66129;45.890;13.714;2023-06-14T07:13:30;100545.91;;;22.93;52.56
77159;BME280;66129;45.890;13.714;2023-06-14T07:15:58;100552.19;;;22.88;53.25
77159;BME280;66129;45.890;13.714;2023-06-14T07:18:24;100581.25;;;23.05;53.59
77159;BME280;66129;45.890;13.714;2023-06-14T07:20:50;100582.25;;;23.01;52.23
77159;BME280;66129;45.890;13.714;2023-06-14T07:23:15;100567.25;;;23.06;51.66
77159;BME280;66129;45.890;13.714;2023-06-14T07:25:41;100559.56;;;23.01;51.78
77159;BME280;66129;45.890;13.714;2023-06-14T07:28:06;100572.25;;;23.13;50.46
77159;BME280;66129;45.890;13.714;2023-06-14T07:30:32;100559.41;;;23.06;52.28
77159;BME280;66129;45.890;13.714;2023-06-14T07:32:57;100553.16;;;23.11;51.77
77159;BME280;66129;45.890;13.714;2023-06-14T07:35:23;100534.09;;;23.06;52.46
77159;BME280;66129;45.890;13.714;2023-06-14T07:37:49;100570.66;;;23.34;51.90
77159;BME280;66129;45.890;13.714;2023-06-14T07:40:15;100545.94;;;23.18;51.70
77159;BME280;66129;45.890;13.714;2023-06-14T07:42:40;100561.09;;;23.33;51.81
77159;BME280;66129;45.890;13.714;2023-06-14T07:45:06;100560.34;;;23.29;51.70
77159;BME280;66129;45.890;13.714;2023-06-14T07:47:32;100574.31;;;23.28;51.45
77159;BME280;66129;45.890;13.714;2023-06-14T07:49:58;100568.03;;;23.34;51.03
77159;BME280;66129;45.890;13.714;2023-06-14T07:52:24;100557.63;;;23.32;51.90
77159;BME280;66129;45.890;13.714;2023-06-14T07:54:50;100569.47;;;23.42;51.67
77159;BME280;66129;45.890;13.714;2023-06-14T07:57:15;100583.97;;;23.52;51.76
77159;BME280;66129;45.890;13.714;2023-06-14T07:59:41;100560.66;;;23.45;50.82
77159;BME280;66129;45.890;13.714;2023-06-14T08:02:06;100576.75;;;23.81;50.74
77159;BME280;66129;45.890;13.714;2023-06-14T08:04:32;100575.53;;;23.91;50.19
77159;BME280;66129;45.890;13.714;2023-06-14T08:06:59;100561.78;;;24.08;49.73
77159;BME280;66129;45.890;13.714;2023-06-14T08:09:25;100550.31;;;24.55;47.88
77159;BME280;66129;45.890;13.714;2023-06-14T08:11:50;100570.34;;;24.77;48.04
77159;BME280;66129;45.890;13.714;2023-06-14T08:14:16;100572.66;;;25.46;48.03
77159;BME280;66129;45.890;13.714;2023-06-14T08:16:41;100554.28;;;26.21;44.56
77159;BME280;66129;45.890;13.714;2023-06-14T08:19:07;100539.28;;;26.23;44.16
77159;BME280;66129;45.890;13.714;2023-06-14T08:21:33;100578.97;;;26.54;44.23
77159;BME280;66129;45.890;13.714;2023-06-14T08:23:58;100585.63;;;26.96;44.02
77159;BME280;66129;45.890;13.714;2023-06-14T08:26:24;100573.66;;;26.72;40.60
77159;BME280;66129;45.890;13.714;2023-06-14T08:28:54;100566.69;;;26.17;43.15
77159;BME280;66129;45.890;13.714;2023-06-14T08:31:20;100577.69;;;25.89;45.54
77159;BME280;66129;45.890;13.714;2023-06-14T08:33:45;100566.81;;;25.78;44.23
77159;BME280;66129;45.890;13.714;2023-06-14T08:36:11;100570.09;;;25.63;44.56
77159;BME280;66129;45.890;13.714;2023-06-14T08:38:38;100562.84;;;25.88;43.03
77159;BME280;66129;45.890;13.714;2023-06-14T08:41:05;100585.38;;;25.73;42.62
77159;BME280;66129;45.890;13.714;2023-06-14T08:43:31;100570.72;;;25.49;44.29
77159;BME280;66129;45.890;13.714;2023-06-14T08:46:06;100579.34;;;25.33;44.51
77159;BME280;66129;45.890;13.714;2023-06-14T08:48:34;100580.91;;;25.37;45.78
77159;BME280;66129;45.890;13.714;2023-06-14T08:51:00;100593.03;;;25.39;45.99
77159;BME280;66129;45.890;13.714;2023-06-14T08:53:32;100586.34;;;25.52;44.77
77159;BME280;66129;45.890;13.714;2023-06-14T08:56:02;100590.97;;;25.86;43.78
77159;BME280;66129;45.890;13.714;2023-06-14T08:58:30;100592.97;;;25.99;42.48
77159;BME280;66129;45.890;13.714;2023-06-14T09:00:57;100599.25;;;25.57;43.80
77159;BME280;66129;45.890;13.714;2023-06-14T09:03:24;100596.41;;;25.43;43.96
77159;BME280;66129;45.890;13.714;2023-06-14T09:05:57;100602.53;;;25.62;43.59
77159;BME280;66129;45.890;13.714;2023-06-14T09:08:26;100594.41;;;25.68;42.48
77159;BME280;66129;45.890;13.714;2023-06-14T09:10:55;100602.09;;;25.52;43.49
77159;BME280;66129;45.890;13.714;2023-06-14T09:13:21;100581.03;;;25.34;43.28
77159;BME280;66129;45.890;13.714;2023-06-14T09:15:47;100585.16;;;25.39;43.05
77159;BME280;66129;45.890;13.714;2023-06-14T09:18:15;100594.53;;;25.65;42.06
77159;BME280;66129;45.890;13.714;2023-06-14T09:20:42;100598.56;;;25.92;41.98
77159;BME280;66129;45.890;13.714;2023-06-14T09:23:07;100607.69;;;26.40;42.74
77159;BME280;66129;45.890;13.714;2023-06-14T09:25:53;100599.97;;;26.72;42.28
77159;BME280;66129;45.890;13.714;2023-06-14T09:28:19;100593.69;;;27.10;42.43
77159;BME280;66129;45.890;13.714;2023-06-14T09:30:47;100606.88;;;27.27;40.59
77159;BME280;66129;45.890;13.714;2023-06-14T09:33:17;100610.06;;;27.83;40.23
77159;BME280;66129;45.890;13.714;2023-06-14T09:35:45;100609.94;;;27.52;40.10
77159;BME280;66129;45.890;13.714;2023-06-14T09:38:11;100608.16;;;27.69;39.31
77159;BME280;66129;45.890;13.714;2023-06-14T09:40:36;100598.59;;;27.84;40.83
77159;BME280;66129;45.890;13.714;2023-06-14T09:43:06;100600.09;;;28.20;39.24
77159;BME280;66129;45.890;13.714;2023-06-14T09:45:35;100605.00;;;28.11;36.73
77159;BME280;66129;45.890;13.714;2023-06-14T09:48:01;100607.00;;;28.53;36.87
77159;BME280;66129;45.890;13.714;2023-06-14T09:50:27;100595.81;;;28.64;36.68
77159;BME280;66129;45.890;13.714;2023-06-14T09:52:56;100600.78;;;28.85;36.95
77159;BME280;66129;45.890;13.714;2023-06-14T09:55:28;100597.44;;;29.41;34.99
77159;BME280;66129;45.890;13.714;2023-06-14T09:57:56;100597.88;;;29.62;35.36
77159;BME280;66129;45.890;13.714;2023-06-14T10:00:23;100604.50;;;29.83;35.57
77159;BME280;66129;45.890;13.714;2023-06-14T10:02:54;100594.19;;;29.79;35.13
77159;BME280;66129;45.890;13.714;2023-06-14T10:05:27;100601.63;;;29.15;36.63
77159;BME280;66129;45.890;13.714;2023-06-14T10:07:59;100610.09;;;29.06;36.36
77159;BME280;66129;45.890;13.714;2023-06-14T10:10:29;100599.22;;;29.26;35.93
77159;BME280;66129;45.890;13.714;2023-06-14T10:12:56;100593.28;;;29.66;34.48
77159;BME280;66129;45.890;13.714;2023-06-14T10:18:35;100606.16;;;29.43;35.11
77159;BME280;66129;45.890;13.714;2023-06-14T10:23:42;100602.72;;;28.97;35.80
77159;BME280;66129;45.890;13.714;2023-06-14T10:26:18;100592.66;;;28.11;35.55
77159;BME280;66129;45.890;13.714;2023-06-14T10:28:56;100596.91;;;27.83;36.95
77159;BME280;66129;45.890;13.714;2023-06-14T10:31:23;100590.06;;;27.62;36.71
77159;BME280;66129;45.890;13.714;2023-06-14T10:34:04;100583.56;;;27.36;36.94
77159;BME280;66129;45.890;13.714;2023-06-14T10:36:30;100582.53;;;27.39;37.86
77159;BME280;66129;45.890;13.714;2023-06-14T10:41:25;100586.59;;;28.41;37.28
77159;BME280;66129;45.890;13.714;2023-06-14T10:43:52;100579.84;;;28.51;37.95
77159;BME280;66129;45.890;13.714;2023-06-14T10:46:18;100571.56;;;28.73;38.44
77159;BME280;66129;45.890;13.714;2023-06-14T10:48:48;100576.91;;;29.02;37.78
77159;BME280;66129;45.890;13.714;2023-06-14T10:51:20;100578.94;;;28.97;37.82
77159;BME280;66129;45.890;13.714;2023-06-14T10:53:49;100565.28;;;29.34;34.35
77159;BME280;66129;45.890;13.714;2023-06-14T10:56:30;100563.53;;;29.19;34.13
77159;BME280;66129;45.890;13.714;2023-06-14T10:58:59;100554.94;;;28.57;34.53
77159;BME280;66129;45.890;13.714;2023-06-14T11:01:35;100562.19;;;28.83;35.41
77159;BME280;66129;45.890;13.714;2023-06-14T11:04:09;100565.72;;;29.27;35.43
77159;BME280;66129;45.890;13.714;2023-06-14T11:11:45;100558.22;;;29.62;36.40
77159;BME280;66129;45.890;13.714;2023-06-14T11:14:11;100565.66;;;29.42;36.06
77159;BME280;66129;45.890;13.714;2023-06-14T11:16:37;100564.97;;;29.68;34.56
77159;BME280;66129;45.890;13.714;2023-06-14T11:19:05;100547.28;;;29.68;34.12
77159;BME280;66129;45.890;13.714;2023-06-14T11:21:46;100554.94;;;29.87;34.05
77159;BME280;66129;45.890;13.714;2023-06-14T11:24:12;100557.31;;;29.20;32.34
77159;BME280;66129;45.890;13.714;2023-06-14T11:26:38;100549.81;;;28.83;32.35
77159;BME280;66129;45.890;13.714;2023-06-14T11:29:04;100537.19;;;29.04;34.74
77159;BME280;66129;45.890;13.714;2023-06-14T11:31:29;100533.56;;;29.34;33.63
77159;BME280;66129;45.890;13.714;2023-06-14T11:33:58;100525.34;;;29.39;31.80
77159;BME280;66129;45.890;13.714;2023-06-14T11:36:29;100530.41;;;29.57;33.56
77159;BME280;66129;45.890;13.714;2023-06-14T11:39:01;100529.53;;;29.70;35.41
77159;BME280;66129;45.890;13.714;2023-06-14T11:41:37;100534.06;;;29.68;33.05
77159;BME280;66129;45.890;13.714;2023-06-14T11:44:03;100526.91;;;29.56;31.87
77159;BME280;66129;45.890;13.714;2023-06-14T11:46:29;100508.97;;;29.48;33.29
77159;BME280;66129;45.890;13.714;2023-06-14T11:48:55;100524.09;;;29.16;33.19
77159;BME280;66129;45.890;13.714;2023-06-14T11:51:20;100513.78;;;28.98;32.53
77159;BME280;66129;45.890;13.714;2023-06-14T11:53:46;100493.75;;;29.23;34.43
77159;BME280;66129;45.890;13.714;2023-06-14T11:56:13;100487.59;;;29.09;31.97
77159;BME280;66129;45.890;13.714;2023-06-14T11:58:38;100508.44;;;28.99;32.49
77159;BME280;66129;45.890;13.714;2023-06-14T12:01:04;100475.63;;;28.74;31.87
77159;BME280;66129;45.890;13.714;2023-06-14T12:03:30;100497.78;;;28.71;32.07
77159;BME280;66129;45.890;13.714;2023-06-14T12:06:07;100475.50;;;28.17;33.08
77159;BME280;66129;45.890;13.714;2023-06-14T12:08:36;100502.25;;;28.25;34.69
77159;BME280;66129;45.890;13.714;2023-06-14T12:11:14;100482.69;;;28.44;34.26
77159;BME280;66129;45.890;13.714;2023-06-14T12:13:43;100471.09;;;28.76;33.65
77159;BME280;66129;45.890;13.714;2023-06-14T12:16:09;100467.06;;;29.14;33.83
77159;BME280;66129;45.890;13.714;2023-06-14T12:18:40;100473.34;;;29.39;32.18
77159;BME280;66129;45.890;13.714;2023-06-14T12:21:09;100493.72;;;29.09;34.34
77159;BME280;66129;45.890;13.714;2023-06-14T12:23:53;100487.88;;;28.75;33.48
77159;BME280;66129;45.890;13.714;2023-06-14T12:26:19;100492.19;;;28.91;34.14
77159;BME280;66129;45.890;13.714;2023-06-14T12:28:48;100447.47;;;28.74;34.85
77159;BME280;66129;45.890;13.714;2023-06-14T12:31:15;100455.09;;;29.08;34.19
77159;BME280;66129;45.890;13.714;2023-06-14T12:33:42;100468.63;;;29.16;35.05
77159;BME280;66129;45.890;13.714;2023-06-14T12:36:08;100467.34;;;29.37;34.20
77159;BME280;66129;45.890;13.714;2023-06-14T12:38:35;100481.69;;;29.47;32.49
77159;BME280;66129;45.890;13.714;2023-06-14T12:41:01;100480.97;;;29.02;33.62
77159;BME280;66129;45.890;13.714;2023-06-14T12:43:27;100469.41;;;29.04;33.37
77159;BME280;66129;45.890;13.714;2023-06-14T12:45:52;100454.03;;;28.81;35.05
77159;BME280;66129;45.890;13.714;2023-06-14T12:48:18;100450.44;;;28.39;34.13
77159;BME280;66129;45.890;13.714;2023-06-14T12:50:44;100465.56;;;28.51;35.14